Time;durP1;ratioP1;P1;durP2;ratioP2;P2;SDS_P1;SDS_P2;PMS_P1;PMS_P2;Temp;Humidity;BMP_temperature;BMP_pressure;BME280_temperature;BME280_humidity;BME280_pressure;Samples;Min_cycle;Max_cycle;Signal;HPM_P1;HPM_P2
2022/01/31 00:01:43;;;;;;;4.78;2.05;;;;;;;;;;5094089;28;20032;-44
2022/01/31 00:04:09;;;;;;;5.78;1.85;;;;;;;;;;5093562;28;20051;-45
2022/01/31 00:06:35;;;;;;;4.53;1.88;;;;;;;;;;5093688;28;20109;-44
2022/01/31 00:09:01;;;;;;;5.65;1.88;;;;;;;;;;5094067;28;20475;-45
2022/01/31 00:11:27;;;;;;;4.75;1.98;;;;;;;;;;5093966;28;20111;-44
2022/01/31 00:14:09;;;;;;;4.07;1.73;;;;;;;;;;5094289;28;20020;-44
2022/01/31 00:16:35;;;;;;;7.38;2.17;;;;;;;;;;5093930;28;20031;-44
2022/01/31 00:19:01;;;;;;;5.25;2.00;;;;;;;;;;5093903;28;20028;-44
2022/01/31 00:21:27;;;;;;;5.70;1.90;;;;;;;;;;5093799;28;20065;-44
2022/01/31 00:23:53;;;;;;;5.30;1.77;;;;;;;;;;5093797;28;20285;-43
2022/01/31 00:26:19;;;;;;;4.05;1.52;;;;;;;;;;5093784;28;20281;-44
2022/01/31 00:28:45;;;;;;;5.28;1.83;;;;;;;;;;5093578;28;20136;-45
2022/01/31 00:31:11;;;;;;;3.85;1.67;;;;;;;;;;5093914;28;20252;-44
2022/01/31 00:33:37;;;;;;;6.80;1.80;;;;;;;;;;5093643;28;20264;-44
2022/01/31 00:36:03;;;;;;;5.00;1.88;;;;;;;;;;5093562;28;20278;-45
2022/01/31 00:38:29;;;;;;;5.00;1.80;;;;;;;;;;5093465;28;20024;-44
2022/01/31 00:40:55;;;;;;;4.60;2.00;;;;;;;;;;5093405;28;20032;-44
2022/01/31 00:43:22;;;;;;;6.60;1.73;;;;;;;;;;5093351;28;20320;-44
2022/01/31 00:45:59;;;;;;;7.25;1.95;;;;;;;;;;5093281;28;20032;-45
2022/01/31 00:48:27;;;;;;;6.55;2.05;;;;;;;;;;5093503;28;20085;-44
2022/01/31 00:50:53;;;;;;;7.05;2.10;;;;;;;;;;5093561;28;20051;-44
2022/01/31 00:53:19;;;;;;;5.38;1.85;;;;;;;;;;5093259;28;20502;-45
2022/01/31 00:55:45;;;;;;;4.10;1.48;;;;;;;;;;5093170;28;20111;-45
2022/01/31 00:58:11;;;;;;;4.72;1.30;;;;;;;;;;5093188;28;20035;-44
2022/01/31 01:00:37;;;;;;;4.10;1.63;;;;;;;;;;5093057;28;20028;-44
2022/01/31 01:03:04;;;;;;;6.32;2.10;;;;;;;;;;5092802;28;20474;-45
2022/01/31 01:05:30;;;;;;;5.78;1.90;;;;;;;;;;5093061;28;20040;-44
2022/01/31 01:07:56;;;;;;;4.22;1.63;;;;;;;;;;5093117;28;20079;-43
2022/01/31 01:10:22;;;;;;;4.63;1.90;;;;;;;;;;5093002;28;20028;-45
2022/01/31 01:12:48;;;;;;;3.05;1.30;;;;;;;;;;5092872;28;20078;-44
2022/01/31 01:15:15;;;;;;;6.93;1.77;;;15.90;90.20;;;;;;5092885;28;20031;-44
2022/01/31 01:17:42;;;;;;;2.92;1.30;;;;;;;;;;5092761;28;20028;-44
2022/01/31 01:20:08;;;;;;;3.95;1.33;;;16.00;86.90;;;;;;5092825;28;20036;-44
2022/01/31 01:22:34;;;;;;;4.10;1.40;;;;;;;;;;5092980;28;20444;-44
2022/01/31 01:25:03;;;;;;;2.80;1.40;;;15.90;87.20;;;;;;5092709;28;20099;-44
2022/01/31 01:27:29;;;;;;;5.97;2.00;;;;;;;;;;5092871;28;20036;-44
2022/01/31 01:29:56;;;;;;;5.55;1.48;;;;;;;;;;5092668;28;20474;-44
2022/01/31 01:32:24;;;;;;;4.03;1.60;;;;;;;;;;5092605;28;20455;-44
2022/01/31 01:34:49;;;;;;;3.72;1.73;;;;;;;;;;5092781;28;20028;-44
2022/01/31 01:37:16;;;;;;;2.88;1.30;;;;;;;;;;5092586;28;20439;-44
2022/01/31 01:39:42;;;;;;;3.90;1.85;;;;;;;;;;5092521;28;20403;-43
2022/01/31 01:42:08;;;;;;;2.95;1.42;;;;;;;;;;5092451;28;20020;-44
2022/01/31 01:44:42;;;;;;;4.72;1.52;;;15.90;84.90;;;;;;5092733;28;20389;-44
2022/01/31 01:47:09;;;;;;;3.33;1.27;;;;;;;;;;5092395;28;20160;-43
2022/01/31 01:49:35;;;;;;;3.00;1.63;;;;;;;;;;5092436;28;20036;-44
2022/01/31 01:52:01;;;;;;;3.63;1.30;;;;;;;;;;5092395;28;20040;-45
2022/01/31 01:54:27;;;;;;;5.68;1.58;;;;;;;;;;5092383;28;20020;-44
2022/01/31 01:56:53;;;;;;;4.35;1.08;;;;;;;;;;5092299;28;20536;-45
2022/01/31 01:59:19;;;;;;;4.28;1.35;;;;;;;;;;5092329;28;20024;-44
2022/01/31 02:01:45;;;;;;;2.80;1.20;;;;;;;;;;5092219;28;20513;-45
2022/01/31 02:04:11;;;;;;;5.38;1.48;;;;;;;;;;5092132;28;20044;-44
2022/01/31 02:06:37;;;;;;;4.28;1.33;;;;;;;;;;5092259;28;20024;-44
2022/01/31 02:09:04;;;;;;;4.53;1.70;;;;;;;;;;5092250;28;20570;-44
2022/01/31 02:11:30;;;;;;;5.50;1.02;;;;;;;;;;5092233;28;20031;-44
2022/01/31 02:13:56;;;;;;;3.70;1.73;;;;;;;;;;5092193;28;20502;-45
2022/01/31 02:16:22;;;;;;;3.65;0.90;;;;;;;;;;5092257;28;20032;-44
2022/01/31 02:18:50;;;;;;;3.55;1.38;;;;;;;;;;5092191;28;20050;-44
2022/01/31 02:21:17;;;;;;;4.35;1.30;;;15.70;90.50;;;;;;5092144;28;20099;-44
2022/01/31 02:23:43;;;;;;;2.58;1.30;;;15.70;90.50;;;;;;5092422;28;20383;-44
2022/01/31 02:26:09;;;;;;;4.85;1.40;;;;;;;;;;5092144;28;20028;-44
2022/01/31 02:28:37;;;;;;;2.67;1.38;;;15.70;90.70;;;;;;5093947;28;20040;-44
2022/01/31 02:31:05;;;;;;;2.80;0.98;;;15.70;90.70;;;;;;5095931;28;20020;-43
2022/01/31 02:33:31;;;;;;;5.57;1.58;;;;;;;;;;5095881;28;20059;-44
2022/01/31 02:35:58;;;;;;;3.08;1.08;;;;;;;;;;5095846;28;20024;-44
2022/01/31 02:38:24;;;;;;;3.25;1.08;;;;;;;;;;5095771;28;20082;-45
2022/01/31 02:40:50;;;;;;;7.05;1.67;;;;;;;;;;5096075;28;20104;-44
2022/01/31 02:43:21;;;;;;;2.53;1.38;;;15.60;90.70;;;;;;5095692;28;20028;-44
2022/01/31 02:45:47;;;;;;;2.75;1.05;;;;;;;;;;5095713;28;20051;-44
2022/01/31 02:48:15;;;;;;;2.40;0.82;;;;;;;;;;5095538;28;20062;-44
2022/01/31 02:50:41;;;;;;;2.88;1.30;;;;;;;;;;5095530;28;20020;-44
2022/01/31 02:53:21;;;;;;;2.95;1.02;;;;;;;;;;5095792;28;20077;-44
2022/01/31 02:55:47;;;;;;;;;;;15.60;91.00;;;;;;5096017;28;20016;-44
2022/01/31 02:58:13;;;;;;;3.42;1.40;;;;;;;;;;5095830;28;20400;-44
2022/01/31 03:00:40;;;;;;;4.47;1.30;;;;;;;;;;5095510;28;20028;-44
2022/01/31 03:03:06;;;;;;;3.63;1.23;;;;;;;;;;5095380;28;20398;-45
2022/01/31 03:05:32;;;;;;;2.65;1.10;;;;;;;;;;5095377;28;20125;-44
2022/01/31 03:07:58;;;;;;;5.22;1.17;;;;;;;;;;5095570;28;20040;-44
2022/01/31 03:10:24;;;;;;;3.92;1.08;;;;;;;;;;5095506;28;20374;-44
2022/01/31 03:12:51;;;;;;;4.28;1.27;;;;;;;;;;5095189;28;20035;-44
2022/01/31 03:15:17;;;;;;;3.60;1.15;;;;;;;;;;5095140;28;20030;-44
2022/01/31 03:17:47;;;;;;;4.00;1.30;;;;;;;;;;5095137;28;20360;-45
2022/01/31 03:20:13;;;;;;;2.03;1.02;;;;;;;;;;5095338;28;20116;-45
2022/01/31 03:22:39;;;;;;;4.47;0.90;;;;;;;;;;5095007;28;20111;-44
2022/01/31 03:25:05;;;;;;;3.53;1.05;;;;;;;;;;5094906;28;20098;-44
2022/01/31 03:27:31;;;;;;;4.00;1.45;;;;;;;;;;5095055;28;20038;-44
2022/01/31 03:29:57;;;;;;;3.15;1.25;;;;;;;;;;5094870;28;20149;-44
2022/01/31 03:32:23;;;;;;;5.82;1.48;;;;;;;;;;5094806;28;20036;-45
2022/01/31 03:34:49;;;;;;;2.70;0.93;;;;;;;;;;5094723;28;20039;-44
2022/01/31 03:37:15;;;;;;;5.35;1.52;;;;;;;;;;5094778;28;20055;-44
2022/01/31 03:39:41;;;;;;;3.35;1.13;;;;;;;;;;5093513;28;20020;-45
2022/01/31 03:42:07;;;;;;;3.97;1.13;;;;;;;;;;5094598;28;20024;-44
2022/01/31 03:44:33;;;;;;;4.13;1.42;;;;;;;;;;5094597;28;20031;-44
2022/01/31 03:46:59;;;;;;;3.00;1.05;;;;;;;;;;5094771;28;20032;-44
2022/01/31 03:49:25;;;;;;;3.85;1.10;;;;;;;;;;5094473;28;20490;-43
2022/01/31 03:51:51;;;;;;;2.72;1.17;;;;;;;;;;5094451;28;20078;-44
2022/01/31 03:54:17;;;;;;;5.18;1.40;;;;;;;;;;5094485;28;20056;-44
2022/01/31 03:56:43;;;;;;;4.13;1.17;;;;;;;;;;5094375;28;20348;-44
2022/01/31 03:59:09;;;;;;;3.85;1.33;;;;;;;;;;5094290;28;20380;-44
2022/01/31 04:01:35;;;;;;;4.75;1.20;;;;;;;;;;5094121;28;20039;-43
2022/01/31 04:04:01;;;;;;;7.72;1.42;;;;;;;;;;5094105;28;20051;-43
2022/01/31 04:06:27;;;;;;;2.80;0.88;;;;;;;;;;5094101;28;20237;-44
2022/01/31 04:08:53;;;;;;;3.33;1.00;;;;;;;;;;5094015;28;20366;-44
2022/01/31 04:11:19;;;;;;;5.53;1.27;;;;;;;;;;5094075;28;20289;-45
2022/01/31 04:13:45;;;;;;;3.38;1.13;;;;;;;;;;5094276;28;20027;-44
2022/01/31 04:16:11;;;;;;;2.40;1.05;;;;;;;;;;5093976;28;20073;-44
2022/01/31 04:18:37;;;;;;;2.92;1.23;;;;;;;;;;5094161;28;20111;-44
2022/01/31 04:21:03;;;;;;;5.03;1.23;;;;;;;;;;5094136;28;20016;-44
2022/01/31 04:23:29;;;;;;;4.32;1.58;;;;;;;;;;5093814;28;20437;-44
2022/01/31 04:26:03;;;;;;;4.50;1.30;;;15.30;88.80;;;;;;5093741;28;20028;-43
2022/01/31 04:28:32;;;;;;;8.65;1.42;;;;;;;;;;5093903;28;20062;-44
2022/01/31 04:31:12;;;;;;;5.22;1.73;;;15.30;91.20;;;;;;5093951;28;20031;-44
2022/01/31 04:33:38;;;;;;;7.53;1.50;;;;;;;;;;5093688;28;20024;-44
2022/01/31 04:36:04;;;;;;;6.53;1.20;;;;;;;;;;5093609;28;20105;-44
2022/01/31 04:38:30;;;;;;;3.38;1.30;;;;;;;;;;5093460;28;20436;-44
2022/01/31 04:40:56;;;;;;;3.05;1.00;;;;;;;;;;5093457;28;20102;-44
2022/01/31 04:43:22;;;;;;;4.65;1.40;;;;;;;;;;5093671;28;20398;-44
2022/01/31 04:45:49;;;;;;;4.43;1.00;;;;;;;;;;5093277;28;20154;-44
2022/01/31 04:48:16;;;;;;;4.47;1.13;;;;;;;;;;5093508;28;20040;-44
2022/01/31 04:50:42;;;;;;;4.78;0.88;;;15.30;91.10;;;;;;5093021;28;20031;-44
2022/01/31 04:53:08;;;;;;;3.30;0.80;;;;;;;;;;5093209;28;20028;-44
2022/01/31 04:55:35;;;;;;;6.47;1.85;;;;;;;;;;5093173;28;20038;-44
2022/01/31 04:58:01;;;;;;;4.28;1.30;;;;;;;;;;5093159;28;20031;-44
2022/01/31 05:06:35;;;;;;;4.97;1.60;;;15.20;85.60;;;;;;5039464;28;20029;-45
2022/01/31 05:09:01;;;;;;;4.85;1.00;;;;;;;;;;5032901;28;20045;-45
2022/01/31 05:11:27;;;;;;;5.40;1.38;;;;;;;;;;5032811;28;20026;-45
2022/01/31 05:13:53;;;;;;;3.42;1.20;;;;;;;;;;5032793;28;20039;-46
2022/01/31 05:16:19;;;;;;;6.25;1.25;;;;;;;;;;5032715;28;20471;-45
2022/01/31 05:18:45;;;;;;;4.00;1.55;;;;;;;;;;5032726;28;20471;-45
2022/01/31 05:21:11;;;;;;;2.75;0.95;;;;;;;;;;5032695;28;20105;-45
2022/01/31 05:23:37;;;;;;;7.20;1.20;;;;;;;;;;5032632;28;20025;-45
2022/01/31 05:26:04;;;;;;;4.35;1.33;;;;;;;;;;5032595;28;20033;-45
2022/01/31 05:28:30;;;;;;;4.25;1.13;;;;;;;;;;5032437;28;20120;-45
2022/01/31 05:30:56;;;;;;;5.47;1.13;;;;;;;;;;5032531;28;20091;-45
2022/01/31 05:33:22;;;;;;;5.20;1.60;;;;;;;;;;5032475;28;20037;-45
2022/01/31 05:35:48;;;;;;;5.38;1.33;;;;;;;;;;5032506;28;20029;-46
2022/01/31 05:38:14;;;;;;;3.85;0.95;;;;;;;;;;5032534;28;20029;-45
2022/01/31 05:40:40;;;;;;;3.58;1.10;;;;;;;;;;5032426;28;20041;-45
2022/01/31 05:43:06;;;;;;;4.38;1.27;;;;;;;;;;5032402;28;20037;-46
2022/01/31 05:45:32;;;;;;;4.28;0.90;;;;;;;;;;5032312;28;20151;-45
2022/01/31 05:47:58;;;;;;;5.05;1.20;;;;;;;;;;5032276;28;20102;-45
2022/01/31 05:50:24;;;;;;;3.03;1.02;;;;;;;;;;5032492;28;20424;-46
2022/01/31 05:52:51;;;;;;;4.13;1.48;;;15.10;91.00;;;;;;5032322;28;20033;-45
2022/01/31 05:55:17;;;;;;;4.82;1.00;;;;;;;;;;5032340;28;20034;-45
2022/01/31 05:57:43;;;;;;;4.28;1.00;;;;;;;;;;5032297;28;20032;-43
2022/01/31 06:00:10;;;;;;;4.50;1.17;;;;;;;;;;5032262;28;20084;-43
2022/01/31 06:02:36;;;;;;;6.70;1.15;;;;;;;;;;5046038;28;20128;-44
2022/01/31 06:05:03;;;;;;;6.63;1.45;;;15.10;90.90;;;;;;5056180;28;20522;-43
2022/01/31 06:07:29;;;;;;;3.60;1.20;;;;;;;;;;5056046;28;20469;-43
2022/01/31 06:09:55;;;;;;;3.90;1.48;;;;;;;;;;5056039;28;20036;-43
2022/01/31 06:12:22;;;;;;;3.70;1.52;;;;;;;;;;5056104;28;20383;-43
2022/01/31 06:14:48;;;;;;;3.63;1.15;;;;;;;;;;5056097;28;20017;-43
2022/01/31 06:17:14;;;;;;;5.10;0.82;;;;;;;;;;5055982;28;20028;-43
2022/01/31 06:19:40;;;;;;;3.17;1.02;;;;;;;;;;5055869;28;20039;-43
2022/01/31 06:22:05;;;;;;;5.47;1.20;;;;;;;;;;5055934;28;20395;-43
2022/01/31 06:24:31;;;;;;;4.30;1.13;;;;;;;;;;5055761;28;20033;-43
2022/01/31 06:26:59;;;;;;;5.63;1.13;;;;;;;;;;5055704;28;20025;-43
2022/01/31 06:29:26;;;;;;;4.65;1.10;;;;;;;;;;5055758;28;20511;-43
2022/01/31 06:31:52;;;;;;;3.60;1.25;;;;;;;;;;5056042;28;20452;-44
2022/01/31 06:34:18;;;;;;;4.43;1.10;;;;;;;;;;5055731;28;20068;-45
2022/01/31 06:36:44;;;;;;;4.70;1.52;;;;;;;;;;5055554;28;20025;-46
2022/01/31 06:39:10;;;;;;;3.55;1.00;;;;;;;;;;5055531;28;20055;-45
2022/01/31 06:41:36;;;;;;;5.38;1.45;;;;;;;;;;5055512;28;20514;-45
2022/01/31 06:44:02;;;;;;;5.25;1.33;;;;;;;;;;5055437;28;20037;-45
2022/01/31 06:46:28;;;;;;;7.97;1.83;;;;;;;;;;5055379;28;20031;-46
2022/01/31 06:48:54;;;;;;;5.63;1.20;;;;;;;;;;5055261;28;20033;-46
2022/01/31 06:51:20;;;;;;;4.13;1.38;;;;;;;;;;5055351;28;20032;-47
2022/01/31 06:53:48;;;;;;;5.15;1.73;;;;;;;;;;5055229;28;20041;-47
2022/01/31 06:56:16;;;;;;;4.82;1.55;;;15.80;89.90;;;;;;5055500;28;20028;-46
2022/01/31 06:58:42;;;;;;;7.22;1.73;;;;;;;;;;5055136;28;20037;-46
2022/01/31 07:01:08;;;;;;;3.88;1.55;;;;;;;;;;5054809;28;20021;-46
2022/01/31 07:03:36;;;;;;;7.80;1.38;;;;;;;;;;5054919;28;20056;-46
2022/01/31 07:06:02;;;;;;;5.78;1.42;;;15.90;88.80;;;;;;5055324;28;20035;-47
2022/01/31 07:08:29;;;;;;;10.45;1.63;;;;;;;;;;5055270;28;20025;-47
2022/01/31 07:10:55;;;;;;;5.38;1.23;;;;;;;;;;5055293;28;20036;-46
2022/01/31 07:13:35;;;;;;;7.47;2.03;;;;;;;;;;5054829;28;20025;-47
2022/01/31 07:16:02;;;;;;;7.88;1.98;;;;;;;;;;5054901;28;20027;-47
2022/01/31 07:18:28;;;;;;;7.68;1.92;;;;;;;;;;5054783;28;20033;-47
2022/01/31 07:20:56;;;;;;;5.00;1.40;;;;;;;;;;5054743;28;20029;-47
2022/01/31 07:23:26;;;;;;;7.63;2.00;;;;;;;;;;5054722;28;20033;-47
2022/01/31 07:25:52;;;;;;;6.72;1.48;;;;;;;;;;5055026;28;20037;-48
2022/01/31 07:28:19;;;;;;;5.78;1.23;;;;;;;;;;5054575;28;20045;-43
2022/01/31 07:30:50;;;;;;;5.63;1.33;;;15.60;90.40;;;;;;5054544;28;20059;-44
2022/01/31 07:33:17;;;;;;;8.90;1.52;;;15.60;90.40;;;;;;5054599;28;20031;-43
2022/01/31 07:35:46;;;;;;;6.80;1.13;;;15.60;90.40;;;;;;5054461;28;20082;-44
2022/01/31 07:38:12;;;;;;;7.47;1.20;;;;;;;;;;5054438;28;20057;-44
2022/01/31 07:40:39;;;;;;;5.47;1.55;;;;;;;;;;5054360;28;20055;-44
2022/01/31 07:43:05;;;;;;;8.45;1.27;;;;;;;;;;5054321;28;20470;-44
2022/01/31 07:45:31;;;;;;;5.03;1.90;;;;;;;;;;5054375;28;20039;-44
2022/01/31 07:47:57;;;;;;;6.85;1.52;;;;;;;;;;5054139;28;20064;-43
2022/01/31 07:50:23;;;;;;;6.78;1.50;;;;;;;;;;5054426;28;20025;-43
2022/01/31 07:52:49;;;;;;;7.95;1.80;;;;;;;;;;5054383;28;20025;-44
2022/01/31 07:55:15;;;;;;;6.22;1.48;;;;;;;;;;5054101;28;20086;-43
2022/01/31 07:57:42;;;;;;;9.20;1.73;;;;;;;;;;5054014;28;20163;-45
2022/01/31 08:00:09;;;;;;;10.45;1.88;;;15.70;89.00;;;;;;5053908;28;20025;-44
2022/01/31 08:02:35;;;;;;;9.73;1.70;;;;;;;;;;5053815;28;20411;-44
2022/01/31 08:05:01;;;;;;;8.80;2.17;;;;;;;;;;5053980;28;20025;-44
2022/01/31 08:07:27;;;;;;;7.25;1.67;;;;;;;;;;5053748;28;20116;-45
2022/01/31 08:09:53;;;;;;;7.30;1.58;;;;;;;;;;5054065;28;20101;-44
2022/01/31 08:12:19;;;;;;;4.57;1.60;;;;;;;;;;5053705;28;20127;-44
2022/01/31 08:14:47;;;;;;;5.22;1.15;;;;;;;;;;5053899;28;20029;-45
2022/01/31 08:17:13;;;;;;;6.07;1.33;;;;;;;;;;5053872;28;20103;-44
2022/01/31 08:19:39;;;;;;;5.32;1.40;;;;;;;;;;5053591;28;20056;-44
2022/01/31 08:22:05;;;;;;;8.50;1.60;;;;;;;;;;5053805;28;20036;-47
2022/01/31 08:24:31;;;;;;;6.85;2.20;;;;;;;;;;5053495;28;20025;-45
2022/01/31 08:26:57;;;;;;;8.02;1.67;;;;;;;;;;5052716;28;20025;-44
2022/01/31 08:29:30;;;;;;;7.85;1.30;;;;;;;;;;5053383;28;20033;-44
2022/01/31 08:31:57;;;;;;;7.85;1.35;;;;;;;;;;5053762;28;20025;-43
2022/01/31 08:35:47;;;;;;;4.88;1.50;;;;;;;;;;5053294;28;20382;-44
2022/01/31 08:37:09;;;;;;;7.90;1.63;;;;;;;;;;5053267;28;20040;-44
2022/01/31 08:39:35;;;;;;;7.15;1.52;;;;;;;;;;5053249;28;20448;-43
2022/01/31 08:42:01;;;;;;;7.63;2.00;;;;;;;;;;5053181;28;20057;-45
2022/01/31 08:44:27;;;;;;;8.13;2.13;;;;;;;;;;5053071;28;20459;-43
2022/01/31 08:46:53;;;;;;;3.65;1.17;;;;;;;;;;5053025;28;20033;-44
2022/01/31 08:49:19;;;;;;;5.75;1.92;;;;;;;;;;5053025;28;20852;-44
2022/01/31 08:51:46;;;;;;;5.93;1.15;;;;;;;;;;5052984;28;20021;-44
2022/01/31 08:54:13;;;;;;;7.63;1.88;;;15.70;89.20;;;;;;5052919;28;20029;-43
2022/01/31 08:56:40;;;;;;;9.85;1.88;;;;;;;;;;5053182;28;20383;-43
2022/01/31 08:59:16;;;;;;;10.73;1.88;;;15.60;83.70;;;;;;5053118;28;20013;-44
2022/01/31 09:01:43;;;;;;;8.25;1.67;;;15.60;85.60;;;;;;5052806;28;20041;-44
2022/01/31 09:04:11;;;;;;;5.85;1.45;;;;;;;;;;5053088;28;20033;-43
2022/01/31 09:06:38;;;;;;;7.68;1.77;;;;;;;;;;5052780;28;20028;-43
2022/01/31 09:09:08;;;;;;;11.48;2.20;;;15.50;89.30;;;;;;5052605;28;20051;-43
2022/01/31 09:11:36;;;;;;;7.20;2.15;;;;;;;;;;5052741;28;20494;-43
2022/01/31 09:14:02;;;;;;;8.68;1.58;;;;;;;;;;5052685;28;20107;-44
2022/01/31 09:16:28;;;;;;;6.63;1.70;;;;;;;;;;5052835;28;20013;-43
2022/01/31 09:18:54;;;;;;;6.15;1.58;;;;;;;;;;5052688;28;20025;-43
2022/01/31 09:21:20;;;;;;;10.02;1.70;;;;;;;;;;5052456;28;20028;-43
2022/01/31 09:23:51;;;;;;;11.30;2.22;;;;;;;;;;5052451;28;20033;-44
2022/01/31 09:26:18;;;;;;;6.97;1.80;;;;;;;;;;5052713;28;20387;-43
2022/01/31 09:28:44;;;;;;;7.70;1.70;;;;;;;;;;5051063;28;20565;-44
2022/01/31 09:31:10;;;;;;;9.98;2.22;;;;;;;;;;5052311;28;20029;-43
2022/01/31 09:33:36;;;;;;;10.27;1.65;;;;;;;;;;5052344;28;20365;-43
2022/01/31 09:36:02;;;;;;;6.90;1.48;;;;;;;;;;5052412;28;20112;-44
2022/01/31 09:38:28;;;;;;;10.05;2.15;;;;;;;;;;5051298;28;20032;-43
2022/01/31 09:40:55;;;;;;;10.80;2.35;;;;;;;;;;5052271;28;20025;-43
2022/01/31 09:46:15;;;;;;;9.52;2.70;;;15.70;88.40;;;;;;5052557;28;20467;-43
2022/01/31 09:48:41;;;;;;;8.35;2.15;;;;;;;;;;5052137;28;20506;-43
2022/01/31 09:51:18;;;;;;;7.35;1.80;;;15.30;81.90;;;;;;5052734;28;20021;-43
2022/01/31 09:53:47;;;;;;;4.28;1.60;;;15.80;88.20;;;;;;5052260;28;20024;-43
2022/01/31 09:56:18;;;;;;;6.72;1.60;;;15.80;85.80;;;;;;5052247;28;20505;-43
2022/01/31 09:58:44;;;;;;;9.68;2.03;;;;;;;;;;5052153;28;20021;-43
2022/01/31 10:01:16;;;;;;;8.15;1.80;;;15.80;82.10;;;;;;5052024;28;20060;-43
2022/01/31 10:03:50;;;;;;;10.32;2.08;;;15.90;82.00;;;;;;5012716;28;20042;-43
2022/01/31 10:06:32;;;;;;;8.32;2.30;;;15.90;81.70;;;;;;5012451;28;20178;-44
2022/01/31 10:09:07;;;;;;;8.77;2.08;;;15.90;81.70;;;;;;5012408;28;20038;-44
2022/01/31 10:17:44;;;;;;;8.65;2.03;;;16.00;87.90;;;;;;5012538;28;20401;-43
2022/01/31 10:20:30;;;;;;;9.75;2.45;;;16.00;88.90;;;;;;5012296;28;20026;-44
2022/01/31 10:23:12;;;;;;;13.35;2.03;;;16.00;88.20;;;;;;5012235;28;20472;-43
2022/01/31 10:25:38;;;;;;;8.32;2.33;;;;;;;;;;5012219;28;20030;-44
2022/01/31 10:28:15;;;;;;;11.63;3.60;;;15.80;82.30;;;;;;5012104;28;20038;-44
2022/01/31 10:30:42;;;;;;;10.48;2.63;;;;;;;;;;5012214;28;20491;-44
2022/01/31 10:33:09;;;;;;;9.63;2.42;;;15.60;89.00;;;;;;5012302;28;20204;-43
2022/01/31 10:35:37;;;;;;;12.00;2.65;;;;;;;;;;5012179;28;20018;-42
2022/01/31 10:38:12;;;;;;;11.15;2.47;;;15.50;89.10;;;;;;5012407;28;20034;-43
2022/01/31 10:43:57;;;;;;;8.82;2.55;;;15.50;89.30;;;;;;5012411;28;20088;-43
2022/01/31 10:52:02;;;;;;;13.13;3.10;;;;;;;;;;5015950;28;20415;-47
2022/01/31 10:57:02;;;;;;;16.02;3.25;;;15.30;89.10;;;;;;5015860;28;20507;-47
2022/01/31 10:59:32;;;;;;;13.93;2.90;;;15.30;88.90;;;;;;5015387;28;20400;-47
2022/01/31 11:02:00;;;;;;;12.60;3.15;;;15.20;89.40;;;;;;5027528;28;20052;-47
2022/01/31 11:04:31;;;;;;;13.02;3.15;;;15.40;89.30;;;;;;5055126;28;20029;-47
2022/01/31 11:06:59;;;;;;;11.35;2.40;;;15.40;88.90;;;;;;5055240;28;20087;-47
2022/01/31 11:09:25;;;;;;;13.88;2.97;;;;;;;;;;5055063;28;20487;-43
2022/01/31 11:11:51;;;;;;;11.98;2.35;;;;;;;;;;5055117;28;20380;-44
2022/01/31 11:14:20;;;;;;;9.45;2.38;;;;;;;;;;5054904;28;20029;-43
2022/01/31 11:16:47;;;;;;;10.05;2.03;;;15.50;86.50;;;;;;5054786;28;20025;-44
2022/01/31 11:19:16;;;;;;;10.63;2.83;;;;;;;;;;5054823;28;20100;-43
2022/01/31 11:21:45;;;;;;;10.80;2.53;;;15.60;88.60;;;;;;5054995;28;20076;-43
2022/01/31 11:24:19;;;;;;;12.95;2.60;;;15.60;88.70;;;;;;5054775;28;20053;-43
2022/01/31 11:27:07;;;;;;;7.70;2.40;;;15.70;82.30;;;;;;5054685;28;20021;-43
2022/01/31 11:29:36;;;;;;;14.40;3.03;;;15.60;88.50;;;;;;5054988;28;20443;-43
2022/01/31 11:32:02;;;;;;;10.98;2.53;;;;;;;;;;5054547;28;20025;-44
2022/01/31 11:34:28;;;;;;;16.42;3.33;;;;;;;;;;5054470;28;20037;-45
2022/01/31 11:36:54;;;;;;;13.18;2.92;;;;;;;;;;5054388;28;20486;-43
2022/01/31 11:39:20;;;;;;;10.88;2.67;;;;;;;;;;5054405;28;20033;-45
2022/01/31 11:41:51;;;;;;;10.25;2.67;;;15.70;88.30;;;;;;5054273;28;20078;-44
2022/01/31 11:44:17;;;;;;;10.25;2.65;;;;;;;;;;5054456;28;20071;-44
2022/01/31 11:46:43;;;;;;;6.80;1.90;;;;;;;;;;5054589;28;20021;-44
2022/01/31 11:49:12;;;;;;;12.20;2.72;;;15.80;88.10;;;;;;5054122;28;20403;-44
2022/01/31 11:51:50;;;;;;;10.65;2.72;;;15.80;88.00;;;;;;5054123;28;20017;-44
2022/01/31 11:54:22;;;;;;;11.23;2.58;;;15.70;88.00;;;;;;5054278;28;20467;-45
2022/01/31 11:56:52;;;;;;;7.97;2.42;;;15.80;87.80;;;;;;5054132;28;20107;-45
2022/01/31 11:59:21;;;;;;;12.30;3.15;;;15.80;84.40;;;;;;5054062;28;20013;-44
2022/01/31 12:01:52;;;;;;;14.02;3.08;;;15.90;87.90;;;;;;5052976;28;20052;-44
2022/01/31 12:04:22;;;;;;;11.75;2.70;;;15.90;81.30;;;;;;5054082;28;20032;-43
2022/01/31 12:06:48;;;;;;;;;;;16.00;88.80;;;;;;5054612;28;20031;-45
2022/01/31 12:09:17;;;;;;;12.90;2.72;;;;;;;;;;5053832;28;19912;-44
2022/01/31 12:12:05;;;;;;;12.52;2.88;;;15.90;81.20;;;;;;5053788;28;20104;-44
2022/01/31 12:14:49;;;;;;;9.93;2.45;;;15.90;81.00;;;;;;5053785;28;20032;-46
2022/01/31 12:17:49;;;;;;;13.00;2.90;;;15.90;81.20;;;;;;5054034;28;20025;-44
2022/01/31 12:23:39;;;;;;;12.75;2.63;;;15.90;85.10;;;;;;5053985;28;20124;-44
2022/01/31 12:26:27;;;;;;;10.27;2.72;;;15.90;87.60;;;;;;5053535;28;20029;-44
2022/01/31 12:29:02;;;;;;;7.88;2.47;;;15.90;81.50;;;;;;5053478;28;20068;-45
2022/01/31 12:31:35;;;;;;;11.60;3.55;;;15.80;87.80;;;;;;5053373;28;20033;-44
2022/01/31 12:34:17;;;;;;;16.67;3.20;;;15.70;87.70;;;;;;5053394;28;20094;-44
2022/01/31 12:36:43;;;;;;;10.48;2.42;;;;;;;;;;5053408;28;20028;-44
2022/01/31 12:42:44;;;;;;;11.10;3.17;;;15.60;88.10;;;;;;5053405;28;20442;-44
2022/01/31 12:45:23;;;;;;;12.05;3.28;;;15.60;87.90;;;;;;5053441;28;20039;-43
2022/01/31 12:48:07;;;;;;;11.57;3.70;;;15.60;82.10;;;;;;5053119;28;20037;-44
2022/01/31 12:50:34;;;;;;;15.35;3.90;;;15.60;88.20;;;;;;5053043;28;20025;-44
2022/01/31 12:53:05;;;;;;;15.70;3.72;;;;;;;;;;5053225;28;20485;-44
2022/01/31 12:55:31;;;;;;;12.75;3.33;;;;;;;;;;5051700;28;20475;-43
2022/01/31 12:57:57;;;;;;;12.20;3.17;;;;;;;;;;5052977;28;20036;-44
2022/01/31 13:00:43;;;;;;;12.88;3.40;;;15.60;81.30;;;;;;5052900;28;20029;-44
2022/01/31 13:03:09;;;;;;;12.60;2.80;;;;;;;;;;5052693;28;20048;-44
2022/01/31 13:05:36;;;;;;;9.93;3.15;;;;;;;;;;5052787;28;20033;-44
2022/01/31 13:08:17;;;;;;;15.27;3.55;;;16.00;87.70;;;;;;5052668;28;20076;-43
2022/01/31 13:10:43;;;;;;;15.50;2.78;;;;;;;;;;5052724;28;20021;-44
2022/01/31 13:13:09;;;;;;;11.65;3.30;;;;;;;;;;5052403;28;20099;-43
2022/01/31 13:15:35;;;;;;;13.32;3.42;;;;;;;;;;5052666;28;20029;-43
2022/01/31 13:18:08;;;;;;;11.35;3.45;;;16.60;87.00;;;;;;5052673;28;20033;-43
2022/01/31 13:20:37;;;;;;;9.32;2.92;;;16.70;86.60;;;;;;5052664;28;20057;-44
2022/01/31 13:23:03;;;;;;;14.10;2.95;;;;;;;;;;5051290;28;20491;-43
2022/01/31 13:25:30;;;;;;;11.80;3.15;;;;;;;;;;5052464;28;20071;-44
2022/01/31 13:27:56;;;;;;;16.42;3.55;;;;;;;;;;5052338;28;20087;-43
2022/01/31 13:30:31;;;;;;;11.07;3.33;;;17.10;85.60;;;;;;5052396;28;20426;-45
2022/01/31 13:32:57;;;;;;;12.73;2.95;;;;;;;;;;5052460;28;20372;-44
2022/01/31 13:35:27;;;;;;;9.80;2.72;;;17.30;85.70;;;;;;5052411;28;20029;-44
2022/01/31 13:38:06;;;;;;;14.93;3.55;;;17.30;79.10;;;;;;5052329;28;20029;-44
2022/01/31 13:40:50;;;;;;;11.93;3.42;;;17.30;78.60;;;;;;5052348;28;20029;-44
2022/01/31 13:43:17;;;;;;;15.00;3.58;;;;;;;;;;5052183;28;20025;-44
2022/01/31 13:51:37;;;;;;;12.18;3.30;;;17.80;85.00;;;;;;5052145;28;20080;-44
2022/01/31 13:54:14;;;;;;;12.15;3.67;;;17.80;77.80;;;;;;5052226;28;20026;-44
2022/01/31 13:56:50;;;;;;;14.40;3.28;;;18.00;84.90;;;;;;5052166;28;20104;-47
2022/01/31 13:59:18;;;;;;;9.48;2.60;;;18.00;84.70;;;;;;5052055;28;20025;-47
2022/01/31 14:01:44;;;;;;;11.70;3.55;;;;;;;;;;5052113;28;20410;-48
2022/01/31 14:04:11;;;;;;;10.55;2.78;;;18.10;84.50;;;;;;5052043;28;20028;-47
2022/01/31 14:06:39;;;;;;;11.23;3.58;;;18.10;84.60;;;;;;5052071;28;20029;-47
2022/01/31 14:09:08;;;;;;;14.50;3.85;;;18.20;84.60;;;;;;5051957;28;20045;-46
2022/01/31 14:11:42;;;;;;;13.38;3.35;;;18.20;78.00;;;;;;5052008;28;20021;-47
2022/01/31 14:14:12;;;;;;;9.77;3.08;;;;;;;;;;5052039;28;20028;-47
2022/01/31 14:16:40;;;;;;;10.93;3.13;;;18.40;84.50;;;;;;5051900;28;20028;-47
2022/01/31 14:19:13;;;;;;;11.00;3.53;;;18.50;78.10;;;;;;5051950;28;20025;-46
2022/01/31 14:21:42;;;;;;;11.27;3.20;;;18.40;84.40;;;;;;5051991;28;20036;-47
2022/01/31 14:24:09;;;;;;;13.07;3.00;;;;;;;;;;5053104;28;20025;-47
2022/01/31 14:26:35;;;;;;;12.45;3.38;;;;;;;;;;5055832;28;20422;-47
2022/01/31 14:29:01;;;;;;;13.27;3.33;;;18.40;84.00;;;;;;5055711;28;20041;-46
2022/01/31 14:31:33;;;;;;;11.10;3.47;;;18.40;83.90;;;;;;5055756;28;20025;-45
2022/01/31 14:34:07;;;;;;;13.98;3.67;;;18.30;84.10;;;;;;5055757;28;20021;-45
2022/01/31 14:36:40;;;;;;;12.80;2.95;;;18.40;84.20;;;;;;5055684;28;20095;-44
2022/01/31 14:39:15;;;;;;;12.15;3.33;;;18.40;84.10;;;;;;5055684;28;20021;-45
2022/01/31 14:47:24;;;;;;;14.30;3.75;;;;;;;;;;5055646;28;20419;-45
2022/01/31 14:50:02;;;;;;;16.05;3.90;;;18.40;83.90;;;;;;5055790;28;20059;-44
2022/01/31 14:52:28;;;;;;;15.82;3.83;;;;;;;;;;5055377;28;20025;-44
2022/01/31 14:55:04;;;;;;;12.55;3.42;;;18.30;77.70;;;;;;5055310;28;20037;-46